Galvin, WA

3:48 PM PST on February 01, 2015 (GMT -0800)
GRAND MOUND KF7ZAO | Change Station
CLOSE
Current Station
Personal Weather Station
Location: Centralia, WA
Elevation: 157 ft
Nearby Weather Stations

Elev 157 ft 46.77 °N, 123.01 °W | Updated 3 seconds ago

Overcast
Overcast
48.0 °F
Feels Like 48 °F
N
0.0
Wind Variable Wind from ESE
Gusts 0.0 mph

Today
High -- | Low -- °F
--% Chance of Precip.
Yesterday
High -- | Low -- °F
Precip. -- in
7:36 AM 5:15 PM
Waxing Gibbous, 96% visible
Pressure 30.07 in
Visibility 10.0 miles
Clouds Few 3000 ft
Mostly Cloudy 3800 ft
Mostly Cloudy 4900 ft
Windchill 48 °F
Dew Point 45 °F
Humidity 89%
Rainfall 0.21 in
Snow Depth Not available.
UV 0 out of 12
Pollen 4.40 out of 12
Air Quality Not available.
Flu Activity Not available.
METAR KCLS 012335Z AUTO 17010G16KT 10SM FEW030 BKN038 BKN049 09/07 A3007 RMK AO2

More Conditions Fewer Conditions

Pressure 30.07 in
Visibility 10.0 miles
Clouds Few 3000 ft
Mostly Cloudy 3800 ft
Mostly Cloudy 4900 ft
Windchill 48 °F
Dew Point 45 °F
Humidity 89%
Rainfall 0.21 in
Snow Depth Not available.
UV 0 out of 12
Pollen 4.40 out of 12
Air Quality Not available.
Flu Activity Not available.
METAR KCLS 012335Z AUTO 17010G16KT 10SM FEW030 BKN038 BKN049 09/07 A3007 RMK AO2

More Conditions Fewer Conditions

10-Day Weather Forecast

Almanac

Astronomy

Feb. 01, 2015 Rise Set
Actual Time
Civil Twilight
Nautical Twilight
Astronomical Twilight
Moon
Length of Visible Light
Length of Day
Tomorrow will be .
, % of the Moon is Illuminated

Today's Extremes

State Highs State Lows

Community

WunderPhotos

Upload Photos

1,792,612 photos uploaded!

WunderBlogs® & News

Nearby

Air Quality

  Air Quality AQ Index Pollutant
Not available.

Snow Depth

Station Depth Elevation

Earthquake Activity

City Distance Mag. Time & Date
Minimum magnitude displayed is 2.5.

Coastal Water Temperatures

Place Temperature

Nearby Weather Stations